aviador You're here:

KGED Decoded Metar

GEORGETOWN in DE, USA
Report Time2018-05-23 05:54:00
UTC Time2018-05-23 06:49:27
Flight Rules vfr VFR
Wind250° at 06 kt
W.Decomp.*RWY 28: 5.7 kt HW 1.9 kt LCW
RWY 22: 4.5 kt HW 4.0 kt RCW
W.Rank250° ranks 24
Current wind is below 250° avg. (6.0)
Visibility9999 m
Phenomena:N/A
Clouds:N/A
Expected CloudBase > 400 ft AGL from Temp-Dew spread
CeilingNone
Temp20°C (ISA +5)
Dew Point19°C (94% RH)
QNH1014 hPa
Density Alt919 ft
Elevation62 ft
Report Wrong Elevation
Raw Report
KGED 230554Z AUTO 25006KT 10SM CLR 20/19 A2994 RMK AO2 SLP137
60017 T02000189 10228 20194 58015=

Extra information for KGED:More info

Metar Taf Metar & Taf Last 4 Metars F.Rules Stats Wind Profile Meteogram Temp Stats Airport Information Weather charts Add Link Nearby VenuesMetar ALERT Operation Metar Decoded Social comments

AIRNAV info for KGED